createdAt,value
2022-11-29T00:01:25.334Z,92.82
2022-11-29T00:03:52.852Z,92.82
2022-11-29T00:06:27.611Z,92.89
2022-11-29T00:08:55.816Z,92.91
2022-11-29T00:11:43.424Z,92.62
2022-11-29T00:14:12.644Z,92.61
2022-11-29T00:16:42.375Z,92.77
2022-11-29T00:19:10.191Z,92.92
2022-11-29T00:21:37.096Z,92.96
2022-11-29T00:24:04.186Z,92.69
2022-11-29T00:26:31.070Z,92.76
2022-11-29T00:28:58.051Z,92.69
2022-11-29T00:31:30.532Z,92.70
2022-11-29T00:33:58.314Z,92.66
2022-11-29T00:36:25.735Z,92.59
2022-11-29T00:38:52.885Z,92.98
2022-11-29T00:41:19.942Z,92.91
2022-11-29T00:43:46.945Z,92.83
2022-11-29T00:46:13.979Z,92.73
2022-11-29T00:48:40.948Z,92.58
2022-11-29T00:51:07.883Z,92.57
2022-11-29T00:53:35.161Z,92.96
2022-11-29T00:56:02.381Z,92.86
2022-11-29T00:58:29.394Z,92.65
2022-11-29T01:00:56.856Z,92.89
2022-11-29T01:03:23.999Z,92.69
2022-11-29T01:05:51.132Z,92.45
2022-11-29T01:08:18.164Z,92.47
2022-11-29T01:10:45.125Z,92.53
2022-11-29T01:13:12.083Z,92.46
2022-11-29T01:15:38.966Z,92.73
2022-11-29T01:18:05.839Z,92.75
2022-11-29T01:20:32.730Z,92.42
2022-11-29T01:22:59.821Z,92.65
2022-11-29T01:25:27.196Z,92.60
2022-11-29T01:27:54.730Z,92.72
2022-11-29T01:30:21.611Z,92.31
2022-11-29T01:32:48.611Z,92.45
2022-11-29T01:35:15.958Z,92.67
2022-11-29T01:37:42.848Z,92.49
2022-11-29T01:40:09.902Z,92.31
2022-11-29T01:42:36.796Z,92.48
2022-11-29T01:45:08.224Z,92.64
2022-11-29T01:47:36.794Z,92.65
2022-11-29T01:50:03.928Z,92.90
2022-11-29T01:52:32.340Z,92.79
2022-11-29T01:55:02.092Z,92.71
2022-11-29T01:57:29.444Z,92.59
2022-11-29T02:00:01.232Z,92.73
2022-11-29T02:02:36.065Z,92.63
2022-11-29T02:05:03.734Z,92.67
2022-11-29T02:07:30.944Z,92.64
2022-11-29T02:09:57.859Z,92.65
2022-11-29T02:12:50.944Z,92.48
2022-11-29T02:15:54.818Z,92.38
2022-11-29T02:18:32.083Z,92.52
2022-11-29T02:21:17.710Z,92.46
2022-11-29T02:23:47.547Z,92.42
2022-11-29T02:26:30.884Z,92.72
2022-11-29T02:29:27.799Z,92.57
2022-11-29T02:31:57.440Z,92.74
2022-11-29T02:34:47.402Z,92.81
2022-11-29T02:37:41.194Z,92.63
2022-11-29T02:40:32.485Z,92.74
2022-11-29T02:43:20.909Z,92.51
2022-11-29T02:45:56.814Z,92.74
2022-11-29T02:48:33.406Z,92.50
2022-11-29T02:51:18.950Z,92.79
2022-11-29T02:54:10.544Z,92.79
2022-11-29T02:56:46.785Z,92.79
2022-11-29T02:59:39.499Z,92.52
2022-11-29T03:02:20.264Z,92.58
2022-11-29T03:05:11.970Z,92.74
2022-11-29T03:07:47.855Z,92.74
2022-11-29T03:10:48.288Z,92.50
2022-11-29T03:13:25.999Z,92.53
2022-11-29T03:15:56.526Z,92.42
2022-11-29T03:18:35.572Z,92.36
2022-11-29T03:21:20.590Z,92.67
2022-11-29T03:23:51.543Z,92.61
2022-11-29T03:26:24.204Z,92.46
2022-11-29T03:29:07.285Z,92.62
2022-11-29T03:32:11.578Z,92.60
2022-11-29T03:35:07.678Z,92.42
2022-11-29T03:37:42.825Z,92.43
2022-11-29T03:40:21.808Z,92.56
2022-11-29T03:43:04.535Z,92.52
2022-11-29T03:45:43.250Z,92.54
2022-11-29T03:48:36.819Z,92.46
2022-11-29T03:51:26.544Z,92.56
2022-11-29T03:54:14.445Z,92.55
2022-11-29T03:56:41.960Z,92.44
2022-11-29T03:59:15.120Z,92.97
2022-11-29T04:02:15.962Z,92.74
2022-11-29T04:05:20.498Z,92.60
2022-11-29T04:08:10.347Z,92.75
2022-11-29T04:10:58.362Z,92.51
2022-11-29T04:13:43.424Z,92.52
2022-11-29T04:16:23.264Z,92.63
2022-11-29T04:18:53.026Z,92.63
2022-11-29T04:21:45.181Z,92.37
2022-11-29T04:24:39.935Z,92.47
2022-11-29T04:27:31.043Z,92.37
2022-11-29T04:30:12.187Z,92.55
2022-11-29T04:33:10.404Z,92.38
2022-11-29T04:35:55.625Z,92.23
2022-11-29T04:39:05.359Z,92.18
2022-11-29T04:41:54.051Z,92.32
2022-11-29T04:44:40.031Z,92.15
2022-11-29T04:47:14.872Z,92.60
2022-11-29T04:50:07.808Z,92.71
2022-11-29T04:52:39.484Z,92.51
2022-11-29T04:55:53.961Z,92.50
2022-11-29T04:58:37.829Z,92.68
2022-11-29T05:01:32.059Z,92.50
2022-11-29T05:04:21.489Z,92.35
2022-11-29T05:07:25.845Z,92.48
2022-11-29T05:10:04.186Z,92.51
2022-11-29T05:13:04.079Z,92.71
2022-11-29T05:15:52.907Z,92.52
2022-11-29T05:18:57.104Z,92.51
2022-11-29T05:21:35.924Z,92.59
2022-11-29T05:24:25.042Z,92.73
2022-11-29T05:27:07.306Z,92.39
2022-11-29T05:29:58.619Z,92.32
2022-11-29T05:32:44.068Z,92.43
2022-11-29T05:35:34.743Z,92.46
2022-11-29T05:38:19.884Z,92.47
2022-11-29T05:41:11.068Z,92.60
2022-11-29T05:43:53.871Z,92.58
2022-11-29T05:46:54.985Z,92.59
2022-11-29T05:49:39.879Z,92.67
2022-11-29T05:52:36.967Z,92.64
2022-11-29T05:55:15.427Z,92.48
2022-11-29T05:58:03.567Z,92.52
2022-11-29T06:00:52.718Z,92.51
2022-11-29T06:03:43.953Z,92.67
2022-11-29T06:06:22.925Z,92.83
2022-11-29T06:08:57.111Z,92.78
2022-11-29T06:11:33.662Z,92.70
2022-11-29T06:14:05.686Z,92.69
2022-11-29T06:17:05.940Z,92.44
2022-11-29T06:19:42.864Z,92.29
2022-11-29T06:22:25.262Z,92.60
2022-11-29T06:25:17.124Z,92.40
2022-11-29T06:28:05.316Z,92.39
2022-11-29T06:31:09.981Z,92.65
2022-11-29T06:33:43.111Z,92.56
2022-11-29T06:36:31.404Z,92.49
2022-11-29T06:38:58.600Z,92.31
2022-11-29T06:41:25.697Z,92.28
2022-11-29T06:43:52.813Z,92.37
2022-11-29T06:46:57.077Z,92.47
2022-11-29T06:49:35.255Z,92.48
2022-11-29T06:52:21.242Z,92.19
2022-11-29T06:55:06.261Z,92.40
2022-11-29T06:57:57.866Z,92.38
2022-11-29T07:00:27.178Z,92.22
2022-11-29T07:02:57.201Z,92.26
2022-11-29T07:05:34.743Z,92.11
2022-11-29T07:08:07.177Z,92.37
2022-11-29T07:10:36.485Z,92.14
2022-11-29T07:13:03.851Z,92.28
2022-11-29T07:15:36.775Z,92.06
2022-11-29T07:18:26.155Z,91.98
2022-11-29T07:21:01.967Z,92.22
2022-11-29T07:23:42.848Z,92.16
2022-11-29T07:27:05.348Z,92.20
2022-11-29T07:29:45.011Z,92.05
2022-11-29T07:32:27.889Z,92.14
2022-11-29T07:35:39.310Z,92.20
2022-11-29T07:38:15.483Z,92.29
2022-11-29T07:40:57.638Z,92.28
2022-11-29T07:43:50.439Z,91.92
2022-11-29T07:46:17.764Z,92.14
2022-11-29T07:48:44.718Z,91.94
2022-11-29T07:51:11.794Z,91.77
2022-11-29T07:53:42.426Z,92.19
2022-11-29T07:56:09.807Z,91.97
2022-11-29T07:58:36.816Z,92.19
2022-11-29T08:01:04.063Z,92.27
2022-11-29T08:03:31.363Z,92.52
2022-11-29T08:05:58.428Z,92.23
2022-11-29T08:08:25.350Z,91.83
2022-11-29T08:10:54.827Z,92.12
2022-11-29T08:13:21.979Z,92.12
2022-11-29T08:15:49.105Z,92.17
2022-11-29T08:18:16.682Z,92.07
2022-11-29T08:20:44.011Z,92.13
2022-11-29T08:23:13.063Z,91.77
2022-11-29T08:25:40.286Z,92.18
2022-11-29T08:28:07.265Z,92.29
2022-11-29T08:30:34.421Z,91.99
2022-11-29T08:33:01.328Z,92.29
2022-11-29T08:35:28.306Z,91.84
2022-11-29T08:37:55.408Z,92.24
2022-11-29T08:40:22.826Z,92.06
2022-11-29T08:42:49.944Z,92.01
2022-11-29T08:45:16.863Z,92.19
2022-11-29T08:47:43.794Z,92.46
2022-11-29T08:50:15.784Z,92.43
2022-11-29T08:53:06.411Z,92.33
2022-11-29T08:55:35.393Z,92.00
2022-11-29T08:58:05.098Z,92.30
2022-11-29T09:00:32.541Z,92.18
2022-11-29T09:03:19.511Z,92.06
2022-11-29T09:05:46.513Z,92.24
2022-11-29T09:08:13.473Z,92.56
2022-11-29T09:10:40.921Z,92.43
2022-11-29T09:13:09.276Z,92.19
2022-11-29T09:15:40.459Z,92.31
2022-11-29T09:18:07.425Z,92.45
2022-11-29T09:20:34.642Z,92.62
2022-11-29T09:23:01.726Z,92.37
2022-11-29T09:25:31.787Z,92.21
2022-11-29T09:28:01.323Z,92.30
2022-11-29T09:30:31.391Z,92.49
2022-11-29T09:33:05.183Z,92.39
2022-11-29T09:35:33.007Z,92.12
2022-11-29T09:37:59.981Z,92.27
2022-11-29T09:40:54.231Z,92.17
2022-11-29T09:43:35.243Z,92.39
2022-11-29T09:46:20.261Z,92.56
2022-11-29T09:49:03.564Z,92.35
2022-11-29T09:51:38.648Z,92.13
2022-11-29T09:54:18.869Z,92.05
2022-11-29T09:56:47.471Z,92.14
2022-11-29T09:59:36.085Z,92.46
2022-11-29T10:02:09.635Z,92.40
2022-11-29T10:04:40.209Z,92.76
2022-11-29T10:07:14.861Z,92.64
2022-11-29T10:09:48.091Z,92.53
2022-11-29T10:12:35.132Z,92.69
2022-11-29T10:15:16.952Z,92.66
2022-11-29T10:18:00.208Z,92.73
2022-11-29T10:20:39.711Z,92.64
2022-11-29T10:23:13.653Z,92.45
2022-11-29T10:25:48.516Z,92.50
2022-11-29T10:28:26.730Z,92.13
2022-11-29T10:30:55.122Z,92.66
2022-11-29T10:33:30.786Z,92.52
2022-11-29T10:35:59.853Z,92.38
2022-11-29T10:38:31.527Z,92.49
2022-11-29T10:41:07.517Z,92.30
2022-11-29T10:43:34.434Z,92.37
2022-11-29T10:46:02.648Z,92.42
2022-11-29T10:48:33.925Z,92.52
2022-11-29T10:51:04.059Z,92.58
2022-11-29T10:53:35.945Z,92.63
2022-11-29T10:56:14.257Z,92.48
2022-11-29T10:59:05.284Z,92.41
2022-11-29T11:01:33.615Z,92.72
2022-11-29T11:04:01.172Z,92.72
2022-11-29T11:06:44.984Z,92.62
2022-11-29T11:09:28.306Z,92.43
2022-11-29T11:11:59.777Z,92.61
2022-11-29T11:14:37.206Z,92.53
2022-11-29T11:17:27.499Z,92.53
2022-11-29T11:20:19.056Z,92.48
2022-11-29T11:22:57.313Z,92.60
2022-11-29T11:25:39.932Z,92.56
2022-11-29T11:28:23.194Z,92.55
2022-11-29T11:31:05.597Z,92.86
2022-11-29T11:33:35.307Z,92.72
2022-11-29T11:36:14.377Z,92.85
2022-11-29T11:39:02.538Z,92.89
2022-11-29T11:41:49.466Z,93.10
2022-11-29T11:44:58.423Z,92.70
2022-11-29T11:47:24.322Z,92.81
2022-11-29T11:50:00.631Z,93.11
2022-11-29T11:52:38.315Z,92.86
2022-11-29T11:55:26.031Z,92.93
2022-11-29T11:58:12.537Z,93.07
2022-11-29T12:01:07.356Z,92.92
2022-11-29T12:03:39.644Z,92.85
2022-11-29T12:06:06.412Z,93.17
2022-11-29T12:08:33.329Z,93.03
2022-11-29T12:11:07.071Z,93.02
2022-11-29T12:13:36.195Z,92.88
2022-11-29T12:16:12.502Z,93.11
2022-11-29T12:18:42.820Z,93.00
2022-11-29T12:21:17.970Z,93.04
2022-11-29T12:24:13.749Z,93.08
2022-11-29T12:26:57.967Z,92.92
2022-11-29T12:29:27.892Z,92.88
2022-11-29T12:32:03.014Z,92.97
2022-11-29T12:34:54.740Z,93.03
2022-11-29T12:37:37.335Z,93.08
2022-11-29T12:40:07.695Z,93.16
2022-11-29T12:42:51.310Z,93.22
2022-11-29T12:45:35.206Z,93.22
2022-11-29T12:48:05.218Z,92.99
2022-11-29T12:50:47.105Z,92.82
2022-11-29T12:53:44.973Z,92.91
2022-11-29T12:56:18.981Z,92.67
2022-11-29T12:58:48.665Z,92.85
2022-11-29T13:01:43.574Z,92.61
2022-11-29T13:04:17.263Z,92.34
2022-11-29T13:07:11.851Z,91.99
2022-11-29T13:10:03.321Z,91.76
2022-11-29T13:12:42.048Z,91.41
2022-11-29T13:15:16.802Z,91.21
2022-11-29T13:18:17.638Z,90.85
2022-11-29T13:20:59.782Z,90.74
2022-11-29T13:24:09.449Z,90.59
2022-11-29T13:26:38.160Z,90.15
2022-11-29T13:29:05.030Z,90.07
2022-11-29T13:31:32.113Z,89.70
2022-11-29T13:34:01.392Z,89.73
2022-11-29T13:36:37.178Z,89.54
2022-11-29T13:39:34.968Z,89.51
2022-11-29T13:42:19.460Z,89.35
2022-11-29T13:45:03.451Z,88.92
2022-11-29T13:47:30.658Z,89.17
2022-11-29T13:50:04.019Z,89.26
2022-11-29T13:52:39.578Z,89.05
2022-11-29T13:55:29.649Z,88.99
2022-11-29T13:58:19.682Z,88.84
2022-11-29T14:00:46.455Z,88.88
2022-11-29T14:03:30.098Z,88.93
2022-11-29T14:06:16.006Z,88.77
2022-11-29T14:09:17.977Z,88.98
2022-11-29T14:11:50.713Z,89.08
2022-11-29T14:14:20.395Z,89.17
2022-11-29T14:16:51.031Z,89.06
2022-11-29T14:19:33.997Z,89.36
2022-11-29T14:22:06.954Z,89.29
2022-11-29T14:24:36.467Z,89.61
2022-11-29T14:27:06.249Z,89.63
2022-11-29T14:29:48.300Z,89.77
2022-11-29T14:32:25.355Z,89.94
2022-11-29T14:35:00.917Z,89.81
2022-11-29T14:38:02.990Z,89.92
2022-11-29T14:40:34.274Z,89.94
2022-11-29T14:43:01.884Z,90.26
2022-11-29T14:45:33.537Z,90.32
2022-11-29T14:48:01.703Z,90.22
2022-11-29T14:50:34.694Z,90.55
2022-11-29T14:53:01.576Z,90.48
2022-11-29T14:55:32.877Z,90.30
2022-11-29T14:58:06.258Z,90.67
2022-11-29T15:00:38.808Z,90.63
2022-11-29T15:03:37.914Z,90.59
2022-11-29T15:06:04.711Z,90.60
2022-11-29T15:09:16.650Z,90.67
2022-11-29T15:11:56.516Z,90.73
2022-11-29T15:14:40.056Z,90.95
2022-11-29T15:17:18.779Z,90.82
2022-11-29T15:20:19.843Z,90.75
2022-11-29T15:22:54.900Z,90.94
2022-11-29T15:25:28.478Z,90.85
2022-11-29T15:27:58.107Z,91.04
2022-11-29T15:30:35.521Z,91.06
2022-11-29T15:33:07.459Z,91.08
2022-11-29T15:35:35.649Z,91.09
2022-11-29T15:38:03.115Z,91.14
2022-11-29T15:40:35.310Z,91.05
2022-11-29T15:43:25.632Z,90.97
2022-11-29T15:45:56.901Z,91.16
2022-11-29T15:48:28.559Z,91.20
2022-11-29T15:51:17.193Z,91.35
2022-11-29T15:53:49.824Z,91.27
2022-11-29T15:56:40.031Z,91.37
2022-11-29T15:59:31.245Z,91.55
2022-11-29T16:02:00.844Z,91.58
2022-11-29T16:04:27.763Z,91.49
2022-11-29T16:06:54.772Z,91.36
2022-11-29T16:09:33.277Z,91.67
2022-11-29T16:12:00.986Z,91.66
2022-11-29T16:14:30.784Z,91.72
2022-11-29T16:16:58.317Z,91.71
2022-11-29T16:19:28.078Z,91.64
2022-11-29T16:22:18.928Z,91.65
2022-11-29T16:24:52.700Z,91.55
2022-11-29T16:27:21.050Z,91.61
2022-11-29T16:29:48.045Z,91.60
2022-11-29T16:32:27.402Z,91.82
2022-11-29T16:34:54.667Z,91.65
2022-11-29T16:37:26.264Z,91.82
2022-11-29T16:39:57.141Z,91.51
2022-11-29T16:42:28.792Z,91.61
2022-11-29T16:45:30.684Z,91.66
2022-11-29T16:48:01.557Z,91.79
2022-11-29T16:50:30.546Z,91.64
2022-11-29T16:53:21.576Z,91.64
2022-11-29T16:55:48.458Z,91.78
2022-11-29T16:58:15.349Z,91.73
2022-11-29T17:00:42.834Z,91.56
2022-11-29T17:03:09.801Z,91.89
2022-11-29T17:05:41.641Z,91.59
2022-11-29T17:08:11.642Z,91.62
2022-11-29T17:10:38.552Z,91.43
2022-11-29T17:13:09.546Z,91.77
2022-11-29T17:15:36.455Z,91.61
2022-11-29T17:18:03.384Z,91.46
2022-11-29T17:20:32.940Z,91.56
2022-11-29T17:22:59.833Z,91.51
2022-11-29T17:25:26.724Z,91.45
2022-11-29T17:27:57.966Z,91.61
2022-11-29T17:30:24.903Z,91.66
2022-11-29T17:32:51.798Z,91.57
2022-11-29T17:35:18.738Z,91.57
2022-11-29T17:37:45.644Z,91.41
2022-11-29T17:40:15.335Z,91.46
2022-11-29T17:42:42.304Z,91.52
2022-11-29T17:45:09.419Z,91.67
2022-11-29T17:47:36.296Z,91.39
2022-11-29T17:50:03.257Z,91.42
2022-11-29T17:52:30.132Z,91.27
2022-11-29T17:54:57.037Z,91.56
2022-11-29T17:57:24.941Z,91.57
2022-11-29T17:59:51.876Z,91.50
2022-11-29T18:02:18.796Z,91.48
2022-11-29T18:04:45.798Z,91.40
2022-11-29T18:07:14.945Z,91.45
2022-11-29T18:09:42.105Z,91.12
2022-11-29T18:12:09.024Z,91.27
2022-11-29T18:14:38.295Z,91.33
2022-11-29T18:17:05.254Z,91.02
2022-11-29T18:19:32.183Z,91.42
2022-11-29T18:21:59.083Z,91.21
2022-11-29T18:24:25.981Z,91.21
2022-11-29T18:26:52.900Z,91.38
2022-11-29T18:29:20.663Z,91.05
2022-11-29T18:31:47.677Z,91.33
2022-11-29T18:34:14.686Z,91.29
2022-11-29T18:36:44.304Z,91.32
2022-11-29T18:39:14.212Z,91.39
2022-11-29T18:41:42.881Z,91.35
2022-11-29T18:44:11.769Z,91.06
2022-11-29T18:46:39.405Z,91.21
2022-11-29T18:49:07.908Z,91.38
2022-11-29T18:51:35.961Z,91.21
2022-11-29T18:54:03.244Z,91.26
2022-11-29T18:56:31.785Z,91.14
2022-11-29T18:59:04.613Z,91.22
2022-11-29T19:01:34.177Z,91.01
2022-11-29T19:04:01.483Z,91.07
2022-11-29T19:06:37.125Z,90.82
2022-11-29T19:09:06.293Z,90.87
2022-11-29T19:11:33.480Z,90.96
2022-11-29T19:14:03.273Z,90.72
2022-11-29T19:16:31.911Z,90.85
2022-11-29T19:18:59.872Z,90.69
2022-11-29T19:21:28.588Z,90.72
2022-11-29T19:23:57.575Z,90.61
2022-11-29T19:26:26.380Z,90.66
2022-11-29T19:28:53.794Z,90.34
2022-11-29T19:31:24.071Z,90.54
2022-11-29T19:33:52.745Z,90.33
2022-11-29T19:36:23.923Z,90.27
2022-11-29T19:38:53.743Z,90.17
2022-11-29T19:41:31.868Z,90.17
2022-11-29T19:44:01.323Z,90.31
2022-11-29T19:46:33.362Z,90.05
2022-11-29T19:49:01.214Z,90.14
2022-11-29T19:51:29.098Z,90.14
2022-11-29T19:53:57.822Z,89.94
2022-11-29T19:56:27.294Z,89.80
2022-11-29T19:58:55.292Z,90.23
2022-11-29T20:01:25.223Z,90.15
2022-11-29T20:03:55.344Z,90.04
2022-11-29T20:06:22.671Z,90.07
2022-11-29T20:08:49.633Z,89.75
2022-11-29T20:11:21.408Z,89.78
2022-11-29T20:13:53.963Z,89.78
2022-11-29T20:16:22.080Z,89.93
2022-11-29T20:18:51.231Z,89.80
2022-11-29T20:21:38.142Z,89.63
2022-11-29T20:24:06.246Z,89.84
2022-11-29T20:26:35.224Z,89.68
2022-11-29T20:29:02.385Z,89.37
2022-11-29T20:31:29.692Z,89.57
2022-11-29T20:33:57.613Z,89.43
2022-11-29T20:36:49.413Z,89.67
2022-11-29T20:39:37.997Z,89.54
2022-11-29T20:42:43.942Z,89.52
2022-11-29T20:45:12.280Z,89.70
2022-11-29T20:48:01.229Z,89.45
2022-11-29T20:50:30.857Z,89.43
2022-11-29T20:53:09.913Z,89.45
2022-11-29T20:55:42.462Z,89.31
2022-11-29T20:58:13.289Z,89.44
2022-11-29T21:00:40.187Z,89.33
2022-11-29T21:03:07.056Z,89.31
2022-11-29T21:05:33.943Z,89.27
2022-11-29T21:08:01.452Z,89.22
2022-11-29T21:10:28.409Z,89.14
2022-11-29T21:12:56.149Z,89.15
2022-11-29T21:15:26.055Z,89.08
2022-11-29T21:17:53.635Z,89.17
2022-11-29T21:20:27.081Z,89.19
2022-11-29T21:23:07.661Z,89.23
2022-11-29T21:25:49.580Z,89.23
2022-11-29T21:28:18.324Z,89.32
2022-11-29T21:30:48.399Z,89.20
2022-11-29T21:33:15.552Z,89.25
2022-11-29T21:35:43.024Z,89.11
2022-11-29T21:38:12.976Z,89.12
2022-11-29T21:40:39.854Z,89.25
2022-11-29T21:43:06.752Z,88.68
2022-11-29T21:45:33.642Z,88.82
2022-11-29T21:48:03.313Z,88.99
2022-11-29T21:50:30.349Z,88.85
2022-11-29T21:52:57.228Z,88.83
2022-11-29T21:55:31.540Z,88.70
2022-11-29T21:57:59.055Z,88.69
2022-11-29T22:00:26.054Z,88.72
2022-11-29T22:02:53.056Z,88.98
2022-11-29T22:05:19.960Z,88.88
2022-11-29T22:07:46.874Z,88.69
2022-11-29T22:10:13.897Z,88.86
2022-11-29T22:12:49.295Z,88.93
2022-11-29T22:15:24.249Z,88.72
2022-11-29T22:17:51.883Z,88.71
2022-11-29T22:20:18.847Z,88.61
2022-11-29T22:22:47.711Z,88.74
2022-11-29T22:25:18.016Z,88.73
2022-11-29T22:27:44.952Z,88.67
2022-11-29T22:30:12.592Z,88.68
2022-11-29T22:32:39.492Z,88.75
2022-11-29T22:35:06.453Z,88.46
2022-11-29T22:37:33.322Z,88.67
2022-11-29T22:40:00.685Z,88.73
2022-11-29T22:42:27.589Z,88.65
2022-11-29T22:44:58.125Z,88.52
2022-11-29T22:47:25.071Z,88.70
2022-11-29T22:49:51.946Z,88.67
2022-11-29T22:52:18.874Z,88.48
2022-11-29T22:54:46.029Z,88.79
2022-11-29T22:57:13.431Z,88.57
2022-11-29T22:59:40.337Z,88.56
2022-11-29T23:02:07.260Z,88.28
2022-11-29T23:04:34.208Z,88.40
2022-11-29T23:07:01.146Z,88.45
2022-11-29T23:09:28.019Z,88.74
2022-11-29T23:11:56.273Z,88.47
2022-11-29T23:14:24.152Z,88.64
2022-11-29T23:16:51.291Z,88.66
2022-11-29T23:19:18.274Z,88.46
2022-11-29T23:21:46.433Z,88.45
2022-11-29T23:24:16.424Z,88.45
2022-11-29T23:26:45.791Z,88.25
2022-11-29T23:29:18.065Z,88.34
2022-11-29T23:31:45.137Z,88.43
2022-11-29T23:34:14.814Z,88.65
2022-11-29T23:36:41.904Z,88.68
2022-11-29T23:39:08.866Z,88.63
2022-11-29T23:41:36.425Z,88.65
2022-11-29T23:44:04.699Z,88.51
2022-11-29T23:46:31.586Z,88.61
2022-11-29T23:48:58.557Z,88.59
2022-11-29T23:51:25.453Z,88.45
2022-11-29T23:53:53.992Z,88.59
2022-11-29T23:56:21.771Z,88.40
2022-11-29T23:58:48.695Z,88.43
